createdAt,value
2018-09-18T00:01:13.038Z,13.90
2018-09-18T00:03:41.283Z,13.70
2018-09-18T00:06:09.540Z,13.70
2018-09-18T00:08:37.800Z,13.80
2018-09-18T00:11:06.084Z,14.00
2018-09-18T00:13:34.370Z,13.90
2018-09-18T00:16:02.965Z,13.80
2018-09-18T00:18:31.350Z,13.80
2018-09-18T00:20:59.614Z,13.90
2018-09-18T00:23:28.162Z,13.90
2018-09-18T00:25:56.390Z,13.80
2018-09-18T00:28:24.622Z,13.70
2018-09-18T00:30:53.221Z,13.70
2018-09-18T00:33:21.495Z,13.70
2018-09-18T00:35:49.706Z,13.60
2018-09-18T00:38:17.949Z,13.70
2018-09-18T00:40:46.178Z,13.70
2018-09-18T00:43:14.412Z,13.70
2018-09-18T00:45:42.622Z,13.70
2018-09-18T00:48:10.919Z,13.60
2018-09-18T00:50:39.130Z,13.60
2018-09-18T00:53:07.411Z,13.70
2018-09-18T00:55:35.626Z,13.80
2018-09-18T00:58:03.853Z,13.80
2018-09-18T01:00:32.119Z,13.70
2018-09-18T01:03:00.326Z,13.80
2018-09-18T01:05:28.900Z,14.10
2018-09-18T01:07:57.112Z,14.30
2018-09-18T01:10:25.306Z,14.70
2018-09-18T01:12:54.169Z,15.00
2018-09-18T01:15:22.418Z,15.00
2018-09-18T01:17:50.627Z,14.80
2018-09-18T01:20:18.834Z,14.60
2018-09-18T01:22:47.034Z,14.40
2018-09-18T01:25:15.266Z,14.20
2018-09-18T01:27:43.507Z,13.90
2018-09-18T01:30:11.707Z,13.80
2018-09-18T01:32:40.038Z,13.60
2018-09-18T01:35:08.277Z,13.70
2018-09-18T01:37:36.497Z,13.60
2018-09-18T01:40:05.229Z,13.70
2018-09-18T01:42:33.439Z,13.80
2018-09-18T01:45:01.637Z,14.00
2018-09-18T01:47:29.861Z,14.70
2018-09-18T01:49:58.079Z,15.00
2018-09-18T01:52:26.299Z,15.90
2018-09-18T01:54:54.790Z,16.10
2018-09-18T01:57:23.176Z,16.30
2018-09-18T01:59:51.989Z,16.80
2018-09-18T02:02:20.368Z,17.00
2018-09-18T02:04:48.619Z,17.10
2018-09-18T02:07:16.828Z,17.10
2018-09-18T02:09:45.077Z,17.20
2018-09-18T02:12:13.341Z,17.30
2018-09-18T02:14:41.629Z,17.50
2018-09-18T02:17:09.878Z,17.60
2018-09-18T02:19:38.196Z,17.80
2018-09-18T02:22:06.419Z,17.90
2018-09-18T02:24:34.637Z,17.80
2018-09-18T02:27:02.906Z,18.00
2018-09-18T02:29:31.101Z,18.00
2018-09-18T02:31:59.293Z,18.00
2018-09-18T02:34:27.560Z,18.10
2018-09-18T02:36:55.841Z,18.20
2018-09-18T02:39:24.048Z,18.20
2018-09-18T02:41:52.699Z,18.20
2018-09-18T02:44:20.923Z,18.20
2018-09-18T02:46:49.158Z,18.30
2018-09-18T02:49:17.405Z,18.40
2018-09-18T02:51:45.616Z,18.40
2018-09-18T02:54:13.875Z,18.50
2018-09-18T02:56:42.137Z,18.50
2018-09-18T02:59:10.339Z,18.50
2018-09-18T03:01:38.553Z,18.60
2018-09-18T03:04:06.792Z,18.70
2018-09-18T03:06:35.033Z,18.70
2018-09-18T03:09:03.266Z,18.70
2018-09-18T03:11:31.511Z,18.70
2018-09-18T03:13:59.740Z,18.80
2018-09-18T03:16:27.968Z,18.90
2018-09-18T03:21:24.294Z,19.00
2018-09-18T03:23:52.553Z,19.10
2018-09-18T03:26:20.826Z,19.20
2018-09-18T03:28:49.033Z,19.20
2018-09-18T03:31:17.217Z,19.20
2018-09-18T03:33:45.481Z,19.30
2018-09-18T03:36:13.753Z,19.20
2018-09-18T03:38:42.019Z,19.20
2018-09-18T03:41:10.243Z,19.20
2018-09-18T03:43:38.460Z,19.10
2018-09-18T03:46:06.727Z,19.10
2018-09-18T03:48:34.940Z,19.00
2018-09-18T03:51:03.172Z,19.10
2018-09-18T03:53:31.416Z,19.10
2018-09-18T03:55:59.780Z,19.10
2018-09-18T03:58:28.002Z,19.10
2018-09-18T04:00:56.414Z,19.20
2018-09-18T04:03:24.665Z,19.10
2018-09-18T04:05:52.905Z,19.10
2018-09-18T04:08:21.128Z,19.10
2018-09-18T04:10:49.389Z,19.10
2018-09-18T04:13:17.616Z,19.20
2018-09-18T04:15:45.855Z,19.20
2018-09-18T04:18:16.595Z,19.30
2018-09-18T04:20:44.785Z,19.30
2018-09-18T04:23:13.049Z,19.30
2018-09-18T04:25:41.297Z,19.40
2018-09-18T04:28:09.493Z,19.50
2018-09-18T04:30:37.730Z,19.50
2018-09-18T04:33:05.965Z,19.40
2018-09-18T04:35:34.200Z,19.40
2018-09-18T04:38:02.499Z,19.40
2018-09-18T04:40:30.761Z,19.40
2018-09-18T04:42:59.025Z,19.50
2018-09-18T04:45:27.248Z,19.50
2018-09-18T04:47:55.501Z,19.60
2018-09-18T04:50:23.765Z,19.60
2018-09-18T04:52:52.029Z,19.60
2018-09-18T04:55:20.448Z,19.60
2018-09-18T04:57:48.693Z,19.60
2018-09-18T05:00:16.955Z,19.60
2018-09-18T05:02:45.217Z,19.60
2018-09-18T05:05:13.777Z,19.60
2018-09-18T05:07:41.981Z,19.70
2018-09-18T05:10:10.220Z,19.80
2018-09-18T05:12:38.445Z,19.90
2018-09-18T05:15:06.652Z,19.90
2018-09-18T05:17:34.920Z,19.90
2018-09-18T05:20:03.208Z,19.90
2018-09-18T05:22:31.450Z,20.00
2018-09-18T05:24:59.700Z,20.00
2018-09-18T05:27:27.905Z,20.00
2018-09-18T05:29:56.158Z,20.00
2018-09-18T05:32:24.433Z,20.10
2018-09-18T05:34:53.251Z,20.10
2018-09-18T05:37:21.632Z,20.10
2018-09-18T05:39:49.838Z,20.20
2018-09-18T05:42:18.036Z,20.20
2018-09-18T05:44:46.252Z,20.20
2018-09-18T05:47:15.076Z,20.30
2018-09-18T05:49:43.651Z,20.30
2018-09-18T05:52:11.869Z,20.40
2018-09-18T05:57:08.362Z,20.60
2018-09-18T05:59:36.749Z,20.50
2018-09-18T06:02:05.336Z,20.60
2018-09-18T06:04:33.574Z,20.60
2018-09-18T06:07:01.864Z,20.70
2018-09-18T06:09:30.100Z,20.70
2018-09-18T06:11:58.298Z,20.80
2018-09-18T06:14:26.594Z,20.80
2018-09-18T06:16:54.807Z,20.80
2018-09-18T06:19:23.052Z,20.90
2018-09-18T06:21:51.358Z,20.90
2018-09-18T06:26:47.596Z,21.10
2018-09-18T06:29:15.843Z,21.20
2018-09-18T06:31:44.060Z,21.30
2018-09-18T06:34:12.304Z,21.40
2018-09-18T06:36:40.916Z,21.50
2018-09-18T06:39:10.523Z,21.60
2018-09-18T06:41:39.289Z,21.70
2018-09-18T06:44:07.544Z,21.90
2018-09-18T06:46:35.784Z,22.10
2018-09-18T06:49:04.050Z,22.20
2018-09-18T06:51:32.305Z,22.60
2018-09-18T06:54:00.527Z,22.80
2018-09-18T06:56:28.748Z,23.00
2018-09-18T07:01:24.978Z,23.50
2018-09-18T07:03:54.042Z,23.80
2018-09-18T07:06:22.270Z,24.00
2018-09-18T07:08:50.428Z,24.30
2018-09-18T07:11:18.590Z,24.60
2018-09-18T07:13:47.141Z,24.80
2018-09-18T07:16:15.388Z,24.90
2018-09-18T07:18:43.628Z,25.00
2018-09-18T07:21:12.820Z,25.10
2018-09-18T07:23:41.156Z,25.20
2018-09-18T07:26:09.419Z,25.50
2018-09-18T07:28:37.979Z,25.70
2018-09-18T07:31:06.236Z,26.00
2018-09-18T07:33:34.454Z,26.20
2018-09-18T07:36:02.711Z,26.50
2018-09-18T07:38:30.892Z,26.70
2018-09-18T07:40:59.629Z,27.20
2018-09-18T07:43:27.751Z,28.40
2018-09-18T07:45:55.953Z,31.00
2018-09-18T07:48:24.209Z,33.40
2018-09-18T07:50:52.430Z,34.80
2018-09-18T07:53:20.625Z,35.60
2018-09-18T07:55:48.867Z,37.40
2018-09-18T07:58:17.107Z,38.30
2018-09-18T08:00:45.485Z,39.10
2018-09-18T08:03:13.776Z,40.20
2018-09-18T08:08:09.901Z,42.70
2018-09-18T08:10:38.121Z,43.30
2018-09-18T08:13:06.456Z,43.30
2018-09-18T08:15:34.654Z,43.40
2018-09-18T08:18:05.298Z,42.80
2018-09-18T08:20:33.513Z,42.80
2018-09-18T08:23:01.734Z,43.70
2018-09-18T08:27:58.015Z,44.00
2018-09-18T08:30:26.213Z,44.70
2018-09-18T08:32:54.492Z,44.40
2018-09-18T08:35:22.626Z,46.30
2018-09-18T08:37:50.852Z,46.50
2018-09-18T08:40:19.758Z,44.30
2018-09-18T08:42:47.995Z,40.30
2018-09-18T08:45:16.204Z,37.10
2018-09-18T08:47:44.388Z,34.20
2018-09-18T08:50:12.581Z,33.50
2018-09-18T08:52:40.891Z,32.60
2018-09-18T08:55:09.114Z,32.10
2018-09-18T08:57:37.335Z,32.20
2018-09-18T09:00:06.217Z,33.10
2018-09-18T09:02:35.318Z,37.90
2018-09-18T09:05:03.611Z,41.20
2018-09-18T09:07:31.930Z,43.50
2018-09-18T09:12:28.129Z,46.30
2018-09-18T09:14:56.723Z,47.60
2018-09-18T09:17:25.317Z,49.80
2018-09-18T09:19:53.544Z,50.70
2018-09-18T09:22:22.403Z,49.80
2018-09-18T09:24:50.618Z,49.80
2018-09-18T09:27:18.871Z,50.60
2018-09-18T09:29:47.142Z,48.30
2018-09-18T09:32:15.367Z,49.50
2018-09-18T09:34:43.482Z,49.80
2018-09-18T09:37:11.713Z,49.00
2018-09-18T09:39:39.856Z,50.20
2018-09-18T09:42:08.046Z,51.00
2018-09-18T09:44:36.313Z,51.50
2018-09-18T09:47:04.612Z,51.10
2018-09-18T09:49:32.851Z,50.30
2018-09-18T09:52:01.052Z,50.60
2018-09-18T09:54:29.325Z,51.50
2018-09-18T09:56:57.586Z,52.10
2018-09-18T09:59:26.399Z,52.20
2018-09-18T10:02:00.341Z,52.30
2018-09-18T10:04:28.566Z,52.40
2018-09-18T10:06:56.755Z,52.70
2018-09-18T10:09:25.384Z,51.70
2018-09-18T10:11:53.552Z,51.80
2018-09-18T10:14:21.801Z,50.80
2018-09-18T10:16:50.005Z,51.10
2018-09-18T10:19:18.202Z,51.00
2018-09-18T10:21:46.405Z,50.30
2018-09-18T10:24:14.619Z,49.80
2018-09-18T10:26:42.863Z,49.50
2018-09-18T10:29:11.047Z,49.00
2018-09-18T10:31:39.253Z,46.70
2018-09-18T10:34:07.888Z,46.20
2018-09-18T10:36:36.146Z,45.20
2018-09-18T10:39:06.240Z,44.50
2018-09-18T10:41:34.546Z,44.10
2018-09-18T10:44:02.653Z,43.70
2018-09-18T10:46:30.901Z,42.60
2018-09-18T10:48:59.369Z,40.90
2018-09-18T10:51:27.634Z,39.50
2018-09-18T10:53:56.057Z,38.20
2018-09-18T10:56:24.281Z,37.40
2018-09-18T10:58:52.511Z,36.60
2018-09-18T11:01:20.754Z,36.00
2018-09-18T11:03:49.000Z,35.60
2018-09-18T11:06:17.180Z,35.70
2018-09-18T11:08:45.393Z,35.60
2018-09-18T11:11:13.636Z,35.70
2018-09-18T11:13:41.843Z,35.50
2018-09-18T11:16:10.272Z,35.20
2018-09-18T11:18:38.874Z,35.20
2018-09-18T11:21:07.080Z,35.30
2018-09-18T11:23:35.304Z,35.00
2018-09-18T11:26:03.552Z,35.00
2018-09-18T11:28:31.836Z,35.10
2018-09-18T11:31:00.058Z,35.00
2018-09-18T11:33:28.324Z,34.90
2018-09-18T11:35:56.554Z,34.80
2018-09-18T11:38:24.807Z,35.00
2018-09-18T11:40:53.048Z,35.10
2018-09-18T11:43:21.478Z,35.10
2018-09-18T11:45:49.856Z,35.00
2018-09-18T11:48:17.946Z,35.10
2018-09-18T11:50:46.240Z,35.40
2018-09-18T11:53:14.434Z,35.50
2018-09-18T11:55:42.633Z,35.50
2018-09-18T11:58:11.194Z,35.60
2018-09-18T12:00:39.409Z,35.50
2018-09-18T12:03:07.726Z,35.50
2018-09-18T12:05:36.820Z,35.50
2018-09-18T12:08:05.186Z,35.30
2018-09-18T12:10:33.415Z,35.20
2018-09-18T12:13:02.002Z,35.10
2018-09-18T12:15:30.279Z,35.20
2018-09-18T12:17:58.489Z,35.00
2018-09-18T12:20:26.716Z,35.10
2018-09-18T12:22:54.981Z,35.10
2018-09-18T12:25:23.225Z,35.20
2018-09-18T12:27:51.485Z,35.50
2018-09-18T12:30:19.678Z,35.70
2018-09-18T12:32:47.881Z,35.80
2018-09-18T12:35:16.114Z,35.80
2018-09-18T12:37:44.447Z,35.90
2018-09-18T12:40:12.650Z,36.00
2018-09-18T12:42:41.334Z,36.30
2018-09-18T12:45:09.534Z,36.20
2018-09-18T12:47:37.910Z,36.10
2018-09-18T12:50:06.908Z,36.00
2018-09-18T12:52:34.987Z,36.00
2018-09-18T12:55:09.927Z,36.20
2018-09-18T12:57:38.462Z,36.20
2018-09-18T13:00:07.646Z,36.40
2018-09-18T13:02:35.826Z,36.20
2018-09-18T13:05:04.081Z,36.00
2018-09-18T13:07:32.284Z,35.80
2018-09-18T13:10:00.558Z,36.00
2018-09-18T13:12:28.686Z,35.90
2018-09-18T13:14:56.897Z,36.00
2018-09-18T13:17:25.122Z,36.00
2018-09-18T13:19:53.388Z,35.70
2018-09-18T13:22:21.598Z,35.60
2018-09-18T13:24:51.147Z,35.50
2018-09-18T13:27:19.456Z,35.30
2018-09-18T13:29:47.708Z,35.30
2018-09-18T13:32:15.897Z,35.20
2018-09-18T13:34:46.411Z,35.40
2018-09-18T13:37:14.741Z,35.40
2018-09-18T13:39:43.263Z,35.40
2018-09-18T13:42:11.514Z,35.50
2018-09-18T13:44:39.737Z,35.60
2018-09-18T13:47:07.936Z,35.70
2018-09-18T13:52:10.809Z,35.90
2018-09-18T13:54:39.053Z,35.70
2018-09-18T13:57:07.328Z,35.70
2018-09-18T13:59:35.487Z,35.70
2018-09-18T14:02:03.660Z,35.50
2018-09-18T14:04:31.913Z,35.50
2018-09-18T14:07:00.090Z,35.50
2018-09-18T14:09:28.369Z,35.40
2018-09-18T14:11:56.498Z,35.40
2018-09-18T14:14:24.731Z,35.20
2018-09-18T14:16:52.962Z,35.20
2018-09-18T14:19:21.161Z,35.30
2018-09-18T14:21:49.444Z,35.20
2018-09-18T14:24:17.662Z,35.20
2018-09-18T14:26:46.067Z,35.20
2018-09-18T14:29:14.105Z,35.10
2018-09-18T14:31:42.313Z,35.10
2018-09-18T14:34:10.552Z,35.00
2018-09-18T14:36:38.775Z,34.90
2018-09-18T14:39:08.615Z,34.80
2018-09-18T14:41:37.221Z,34.70
2018-09-18T14:44:05.625Z,34.70
2018-09-18T14:46:33.917Z,34.60
2018-09-18T14:49:02.140Z,34.50
2018-09-18T14:51:30.370Z,34.40
2018-09-18T14:53:58.621Z,34.40
2018-09-18T14:56:26.856Z,34.30
2018-09-18T14:58:55.069Z,34.30
2018-09-18T15:01:23.281Z,34.10
2018-09-18T15:03:52.240Z,34.00
2018-09-18T15:06:20.520Z,33.90
2018-09-18T15:08:48.828Z,33.80
2018-09-18T15:11:17.070Z,33.60
2018-09-18T15:13:45.323Z,33.50
2018-09-18T15:16:13.619Z,33.40
2018-09-18T15:18:41.799Z,33.30
2018-09-18T15:21:10.042Z,33.30
2018-09-18T15:23:38.241Z,33.30
2018-09-18T15:26:06.585Z,33.30
2018-09-18T15:28:34.809Z,33.20
2018-09-18T15:31:03.090Z,33.10
2018-09-18T15:33:31.431Z,33.10
2018-09-18T15:35:59.622Z,33.10
2018-09-18T15:38:27.861Z,33.00
2018-09-18T15:40:56.099Z,32.90
2018-09-18T15:43:24.300Z,32.90
2018-09-18T15:45:53.264Z,32.70
2018-09-18T15:48:21.487Z,32.60
2018-09-18T15:50:49.678Z,32.50
2018-09-18T15:53:17.909Z,32.40
2018-09-18T15:55:46.153Z,32.30
2018-09-18T15:58:14.347Z,32.20
2018-09-18T16:00:42.634Z,32.10
2018-09-18T16:03:10.816Z,32.10
2018-09-18T16:05:39.177Z,32.10
2018-09-18T16:08:07.450Z,32.00
2018-09-18T16:10:35.704Z,31.90
2018-09-18T16:18:00.107Z,31.50
2018-09-18T16:20:28.314Z,31.40
2018-09-18T16:22:56.691Z,31.20
2018-09-18T16:25:31.477Z,31.00
2018-09-18T16:27:59.708Z,30.90
2018-09-18T16:30:27.948Z,30.80
2018-09-18T16:32:56.745Z,30.50
2018-09-18T16:35:25.014Z,30.50
2018-09-18T16:37:53.323Z,30.50
2018-09-18T16:40:21.711Z,30.40
2018-09-18T16:42:49.782Z,30.30
2018-09-18T16:45:18.028Z,30.20
2018-09-18T16:47:46.878Z,30.20
2018-09-18T16:50:15.171Z,30.10
2018-09-18T16:52:43.575Z,30.00
2018-09-18T16:55:12.508Z,29.90
2018-09-18T16:57:40.817Z,29.70
2018-09-18T17:00:09.025Z,29.70
2018-09-18T17:02:37.208Z,29.50
2018-09-18T17:05:05.598Z,29.20
2018-09-18T17:09:07.953Z,28.80
2018-09-18T17:11:36.195Z,28.50
2018-09-18T17:14:04.365Z,28.20
2018-09-18T17:16:32.647Z,28.00
2018-09-18T17:19:00.768Z,27.80
2018-09-18T17:21:29.001Z,27.70
2018-09-18T17:23:57.196Z,27.40
2018-09-18T17:26:25.496Z,27.30
2018-09-18T17:28:53.795Z,27.10
2018-09-18T17:31:21.837Z,27.00
2018-09-18T17:33:49.996Z,27.00
2018-09-18T17:36:18.157Z,26.90
2018-09-18T17:38:46.388Z,26.80
2018-09-18T17:41:14.554Z,26.80
2018-09-18T17:43:42.748Z,26.70
2018-09-18T17:46:10.928Z,26.60
2018-09-18T17:48:39.140Z,26.60
2018-09-18T17:51:07.346Z,26.40
2018-09-18T17:53:35.576Z,26.30
2018-09-18T17:56:03.700Z,26.30
2018-09-18T17:58:31.856Z,26.10
2018-09-18T18:01:00.020Z,26.10
2018-09-18T18:03:28.191Z,26.00
2018-09-18T18:05:56.405Z,26.00
2018-09-18T18:08:24.663Z,25.90
2018-09-18T18:10:52.735Z,25.90
2018-09-18T18:13:20.899Z,25.80
2018-09-18T18:15:49.063Z,25.80
2018-09-18T18:18:17.261Z,25.70
2018-09-18T18:20:45.533Z,25.70
2018-09-18T18:23:13.612Z,25.60
2018-09-18T18:25:41.800Z,25.60
2018-09-18T18:28:09.970Z,25.60
2018-09-18T18:30:38.133Z,25.50
2018-09-18T18:33:06.331Z,25.50
2018-09-18T18:35:34.557Z,25.50
2018-09-18T18:38:02.668Z,25.50
2018-09-18T18:40:30.862Z,25.40
2018-09-18T18:42:59.068Z,25.30
2018-09-18T18:45:27.645Z,25.20
2018-09-18T18:47:55.921Z,25.20
2018-09-18T18:52:51.998Z,25.20
2018-09-18T18:55:20.295Z,25.20
2018-09-18T18:57:48.495Z,25.10
2018-09-18T19:00:16.770Z,25.20
2018-09-18T19:02:44.982Z,25.10
2018-09-18T19:05:13.198Z,25.10
2018-09-18T19:07:41.487Z,25.10
2018-09-18T19:10:09.721Z,25.00
2018-09-18T19:12:38.009Z,25.00
2018-09-18T19:15:06.276Z,24.90
2018-09-18T19:17:34.525Z,24.90
2018-09-18T19:20:02.795Z,24.90
2018-09-18T19:22:31.014Z,24.80
2018-09-18T19:24:59.206Z,24.80
2018-09-18T19:27:27.429Z,24.80
2018-09-18T19:29:55.636Z,24.70
2018-09-18T19:32:23.836Z,24.70
2018-09-18T19:34:52.051Z,24.60
2018-09-18T19:37:20.433Z,24.50
2018-09-18T19:39:48.664Z,24.50
2018-09-18T19:42:16.890Z,24.50
2018-09-18T19:44:45.106Z,24.40
2018-09-18T19:47:13.349Z,24.40
2018-09-18T19:49:41.843Z,24.30
2018-09-18T19:52:11.213Z,24.30
2018-09-18T19:54:40.108Z,24.20
2018-09-18T19:57:08.329Z,24.20
2018-09-18T19:59:36.581Z,24.10
2018-09-18T20:02:04.797Z,24.00
2018-09-18T20:04:32.984Z,24.00
2018-09-18T20:07:01.272Z,23.80
2018-09-18T20:09:29.609Z,23.80
2018-09-18T20:14:25.702Z,23.60
2018-09-18T20:16:53.981Z,23.50
2018-09-18T20:19:22.190Z,23.40
2018-09-18T20:21:50.368Z,23.20
2018-09-18T20:24:18.622Z,23.00
2018-09-18T20:26:46.825Z,22.80
2018-09-18T20:29:15.025Z,22.70
2018-09-18T20:31:43.252Z,22.50
2018-09-18T20:34:11.494Z,22.50
2018-09-18T20:36:39.720Z,22.30
2018-09-18T20:39:09.625Z,22.20
2018-09-18T20:41:37.867Z,22.00
2018-09-18T20:44:06.045Z,21.90
2018-09-18T20:46:34.381Z,21.70
2018-09-18T20:49:02.565Z,21.80
2018-09-18T20:51:30.879Z,21.70
2018-09-18T20:53:59.128Z,21.70
2018-09-18T20:56:27.362Z,21.70
2018-09-18T20:58:55.614Z,21.80
2018-09-18T21:01:23.999Z,21.80
2018-09-18T21:03:52.180Z,21.60
2018-09-18T21:06:20.373Z,21.40
2018-09-18T21:08:48.584Z,21.40
2018-09-18T21:11:16.776Z,21.30
2018-09-18T21:13:45.251Z,21.20
2018-09-18T21:16:13.478Z,21.10
2018-09-18T21:18:41.705Z,21.10
2018-09-18T21:21:09.921Z,21.10
2018-09-18T21:23:38.130Z,21.20
2018-09-18T21:26:09.579Z,21.10
2018-09-18T21:28:37.816Z,21.20
2018-09-18T21:31:06.083Z,21.20
2018-09-18T21:33:34.293Z,21.20
2018-09-18T21:36:02.489Z,21.30
2018-09-18T21:38:31.094Z,21.30
2018-09-18T21:40:59.291Z,21.30
2018-09-18T21:43:28.308Z,21.20
2018-09-18T21:45:56.484Z,21.10
2018-09-18T21:48:24.730Z,21.00
2018-09-18T21:50:52.940Z,20.90
2018-09-18T21:53:21.138Z,20.80
2018-09-18T21:55:49.346Z,20.80
2018-09-18T21:58:17.503Z,20.70
2018-09-18T22:00:45.706Z,20.70
2018-09-18T22:03:13.906Z,20.70
2018-09-18T22:05:42.099Z,20.70
2018-09-18T22:08:10.291Z,20.80
2018-09-18T22:10:38.488Z,20.80
2018-09-18T22:13:06.676Z,20.80
2018-09-18T22:15:34.854Z,20.80
2018-09-18T22:18:03.051Z,20.70
2018-09-18T22:20:31.263Z,20.70
2018-09-18T22:22:59.463Z,20.70
2018-09-18T22:25:27.699Z,20.60
2018-09-18T22:27:55.889Z,20.60
2018-09-18T22:30:24.097Z,20.60
2018-09-18T22:32:52.307Z,20.60
2018-09-18T22:35:20.504Z,20.60
2018-09-18T22:37:48.698Z,20.70
2018-09-18T22:40:16.893Z,20.80
2018-09-18T22:42:45.093Z,20.80
2018-09-18T22:45:13.295Z,20.70
2018-09-18T22:47:41.470Z,20.60
2018-09-18T22:50:09.641Z,20.40
2018-09-18T22:52:37.848Z,20.00
2018-09-18T22:55:06.119Z,19.70
2018-09-18T22:57:34.304Z,19.40
2018-09-18T23:00:02.455Z,19.30
2018-09-18T23:02:30.660Z,19.10
2018-09-18T23:04:58.853Z,19.20
2018-09-18T23:07:27.033Z,19.10
2018-09-18T23:09:55.226Z,19.10
2018-09-18T23:12:23.398Z,19.00
2018-09-18T23:14:51.607Z,19.00
2018-09-18T23:17:19.934Z,19.20
2018-09-18T23:19:48.116Z,19.30
2018-09-18T23:22:16.317Z,19.40
2018-09-18T23:24:44.516Z,19.50
2018-09-18T23:27:12.734Z,19.60
2018-09-18T23:29:40.916Z,19.60
2018-09-18T23:32:09.100Z,19.70
2018-09-18T23:34:37.284Z,19.70
2018-09-18T23:37:05.536Z,19.80
2018-09-18T23:39:33.761Z,19.80
2018-09-18T23:42:01.959Z,19.80
2018-09-18T23:44:30.108Z,19.80
2018-09-18T23:46:58.302Z,19.80
2018-09-18T23:49:26.496Z,19.80
2018-09-18T23:51:54.706Z,19.80
2018-09-18T23:54:22.916Z,19.80
2018-09-18T23:56:51.180Z,19.70
2018-09-18T23:59:19.441Z,19.50
